Grand Island, NE

5:24 PM CDT en Octubre 22, 2014 (GMT -0500)
Barr | Change Station
CLOSE
Current Station
Estación meteorológica personal
Location: Grand Island, NE
Altura: 1864 ft
Estaciones meteorológicas cercanas

Alt 1864 ft 40.90 °N, 98.34 °W | Updated 11 minutes ago

Lluvia
Lluvia
61.3 ° F
Sensación térmica 61.3 ° F
N
2.7
Viento Variable Viento desde SSE

Hoy
Alta -- | Baja -- ° F
--% Posibilidad de precipitaciones
Ayer
Alta -- | Baja -- ° F
Precip. -- pul
7:52 AM 6:42 PM
Creciente menguante, 1% visible
Presión 30.00 pul
Visibilidad 3.0 Millas
Nubes Nubes dispersas 1400 ft
Muy nublado 3800 ft
Nublado 6500 ft
Punto de rocío 60 ° F
Humedad 97%
Precipitaciones 0.72 pul
Espesor de la nieve No disponible.
UV 0 de una escala de 12
Polen 2.60 de una escala de 12
Calidad del aire No disponible.
Flu Activity Sporadic
SPECI KGRI 222158Z 18010KT 3SM R35/5000VP6000FT +RA BR SCT014 BKN038 OVC065 17/15 A3000 RMK AO2 P0004 T01670150

More Conditions Fewer Conditions

Presión 30.00 pul
Visibilidad 3.0 Millas
Nubes Nubes dispersas 1400 ft
Muy nublado 3800 ft
Nublado 6500 ft
Punto de rocío 60 ° F
Humedad 97%
Precipitaciones 0.72 pul
Espesor de la nieve No disponible.
UV 0 de una escala de 12
Polen 2.60 de una escala de 12
Calidad del aire No disponible.
Flu Activity Sporadic
SPECI KGRI 222158Z 18010KT 3SM R35/5000VP6000FT +RA BR SCT014 BKN038 OVC065 17/15 A3000 RMK AO2 P0004 T01670150

More Conditions Fewer Conditions

10-Day Weather Forecast

Almanac

Astronomía

Oct. 22, 2014 Salida Puesta
Hora real 7:52 AM CDT 6:42 PM CDT
Crepúsculo civil 7:24 AM CDT 7:10 PM CDT
Crepúsculo náutico 6:52 AM CDT 7:42 PM CDT
Crepúsculo astronómico 6:20 AM CDT 8:14 PM CDT
Luna 6:34 AM CDT 6:10 PM CDT
Horas de luz 11h 45m
Horas de luz
10h 49m
Tomorrow will be 2m 33s shorter.
Creciente menguante, 1% of the Moon is Illuminated
Hoy
Creciente menguante
Oct 23
Nueva
Oct 30
Cuarto creciente
Nov 6
Luna llena
Nov 14
Cuarto menguante

Extremos de hoy

Máximos del estado Bajos del estado

Community

WunderPhotos

Upload Photos

1,764,064 ¡fotos cargadas!

WunderBlogs® & News

Nearby

Grosos de nieve

Estación Profundido Altura
No tenemos constancia de nieve nueva.

Actividad de terremotos

Ciudad Distance Mag. Tiempo y dato
No hay informes recientes de la actividad sísmica.
Magnitud mínima muestra es 2,5.

Temperaturas de aguas costeras

Lugar Temperatura
Sin partes meteorológicos de las estaciones

Estaciones meteorológicas cercanas